Time;durP1;ratioP1;P1;durP2;ratioP2;P2;SDS_P1;SDS_P2;PMS_P1;PMS_P2;Temp;Humidity;BMP_temperature;BMP_pressure;BME280_temperature;BME280_humidity;BME280_pressure;Samples;Min_cycle;Max_cycle;Signal;HPM_P1;HPM_P2
2024/03/29 01:44:33;;;;;;;7.70;7.30;;;7.20;99.90;;;;;;5018768;28;20272;-76
2024/03/29 01:47:00;;;;;;;7.77;7.37;;;7.20;99.90;;;;;;5035579;28;20200;-76
2024/03/29 01:49:27;;;;;;;8.20;7.70;;;7.20;99.90;;;;;;5035948;28;20244;-76
2024/03/29 01:51:54;;;;;;;7.60;7.20;;;7.20;99.90;;;;;;5053408;28;20226;-76
2024/03/29 01:54:22;;;;;;;7.70;7.30;;;7.30;99.90;;;;;;5035051;28;20198;-76
2024/03/29 01:56:49;;;;;;;7.77;7.37;;;7.40;99.90;;;;;;5053239;28;20245;-77
2024/03/29 01:59:19;;;;;;;7.60;7.20;;;7.40;99.90;;;;;;5035382;28;20214;-76
2024/03/29 02:01:46;;;;;;;7.70;7.30;;;7.40;99.90;;;;;;5035292;28;20438;-76
2024/03/29 02:04:13;;;;;;;8.20;7.70;;;7.40;99.90;;;;;;5062324;28;20195;-76
2024/03/29 02:06:40;;;;;;;7.80;7.30;;;7.40;99.90;;;;;;5053273;28;20203;-76
2024/03/29 02:09:06;;;;;;;7.87;7.37;;;7.40;99.90;;;;;;5053179;28;20225;-76
2024/03/29 02:11:35;;;;;;;7.70;7.30;;;7.50;99.90;;;;;;5035312;28;20223;-77
2024/03/29 02:14:05;;;;;;;8.30;7.70;;;7.50;99.90;;;;;;5034369;28;20211;-76
2024/03/29 02:16:32;;;;;;;7.73;7.33;;;7.60;99.90;;;;;;5035596;28;20340;-77
2024/03/29 02:18:59;;;;;;;7.87;7.33;;;7.60;99.90;;;;;;5053318;28;20202;-76
2024/03/29 02:21:26;;;;;;;8.07;7.57;;;7.70;99.90;;;;;;5034961;28;20297;-76
2024/03/29 02:24:06;;;;;;;8.43;7.80;;;7.70;99.90;;;;;;5034855;28;20207;-76
2024/03/29 02:26:35;;;;;;;8.00;7.50;;;7.70;99.90;;;;;;5052794;28;20222;-76
2024/03/29 02:29:02;;;;;;;7.70;7.30;;;7.80;99.90;;;;;;5052922;28;20202;-76
2024/03/29 02:31:29;;;;;;;7.63;7.23;;;7.80;99.90;;;;;;5034880;28;20284;-76
2024/03/29 02:33:56;;;;;;;7.60;7.20;;;7.80;99.90;;;;;;5033102;28;20203;-77
2024/03/29 02:36:23;;;;;;;7.93;7.30;;;7.80;99.90;;;;;;5034730;28;20269;-76
2024/03/29 02:38:50;;;;;;;7.47;7.07;;;7.80;99.90;;;;;;5052693;28;20253;-77
2024/03/29 02:41:18;;;;;;;7.80;7.30;;;7.80;99.90;;;;;;5051675;28;20235;-76
2024/03/29 02:43:45;;;;;;;7.90;7.40;;;7.80;99.90;;;;;;5052332;28;20202;-76
2024/03/29 02:46:11;;;;;;;7.90;7.40;;;7.70;99.90;;;;;;5034342;28;20260;-77
2024/03/29 02:48:37;;;;;;;7.40;7.00;;;7.70;99.90;;;;;;5034514;28;20253;-77
2024/03/29 02:51:04;;;;;;;7.57;7.17;;;7.70;99.90;;;;;;5034415;28;20223;-77
2024/03/29 02:53:30;;;;;;;7.40;7.00;;;7.60;99.90;;;;;;5034774;28;20634;-76
2024/03/29 02:55:57;;;;;;;7.80;7.30;;;7.60;99.90;;;;;;5034162;28;20199;-77
2024/03/29 02:58:24;;;;;;;7.37;6.97;;;7.50;99.90;;;;;;5051622;28;20199;-76
2024/03/29 03:00:51;;;;;;;7.20;6.80;;;7.40;99.90;;;;;;5052108;28;20222;-76
2024/03/29 03:03:17;;;;;;;7.20;6.80;;;7.40;99.90;;;;;;5051995;28;20257;-77
2024/03/29 03:05:44;;;;;;;7.10;6.70;;;7.40;99.90;;;;;;5052119;28;20610;-76
2024/03/29 03:10:59;;;;;;;7.63;7.10;;;7.40;99.90;;;;;;5034182;28;20219;-76
2024/03/29 03:13:28;;;;;;;7.50;7.10;;;7.40;99.90;;;;;;5051856;28;20199;-78
2024/03/29 03:15:55;;;;;;;7.40;7.00;;;7.50;99.90;;;;;;5052361;28;20195;-78
2024/03/29 03:18:21;;;;;;;7.80;7.40;;;7.50;99.90;;;;;;5034386;28;20200;-77
2024/03/29 03:20:52;;;;;;;7.60;7.20;;;7.60;99.90;;;;;;5052150;28;20698;-76
2024/03/29 03:23:18;;;;;;;7.57;7.17;;;7.60;99.90;;;;;;5046210;28;20234;-78
2024/03/29 03:25:45;;;;;;;7.60;7.20;;;7.60;99.90;;;;;;5034221;28;20198;-78
2024/03/29 03:28:11;;;;;;;7.50;7.10;;;7.70;99.90;;;;;;5051695;28;20659;-78
2024/03/29 03:30:40;;;;;;;7.40;7.00;;;7.70;99.90;;;;;;5051654;28;20226;-77
2024/03/29 03:33:06;;;;;;;7.60;7.20;;;7.70;99.90;;;;;;5035261;28;20203;-78
2024/03/29 03:35:33;;;;;;;7.40;7.00;;;7.80;99.90;;;;;;5060443;28;20234;-77
2024/03/29 03:37:59;;;;;;;7.20;6.80;;;7.80;99.90;;;;;;5052173;28;20202;-77
2024/03/29 03:40:26;;;;;;;7.43;7.03;;;7.90;99.90;;;;;;5032798;28;20203;-79
2024/03/29 03:42:51;;;;;;;7.60;7.20;;;7.90;99.90;;;;;;5052742;28;20272;-79
2024/03/29 03:45:18;;;;;;;7.90;7.50;;;8.00;99.90;;;;;;5034931;28;20223;-77
2024/03/29 03:47:45;;;;;;;7.60;7.20;;;8.10;99.90;;;;;;5026984;28;20198;-77
2024/03/29 03:50:12;;;;;;;7.43;6.90;;;8.20;99.90;;;;;;5047502;28;20199;-78
2024/03/29 03:52:38;;;;;;;7.47;7.07;;;8.30;99.90;;;;;;5027472;28;20235;-77
2024/03/29 03:55:05;;;;;;;7.60;7.20;;;8.40;99.90;;;;;;5030684;28;20280;-77
2024/03/29 03:57:31;;;;;;;7.30;6.90;;;8.50;99.90;;;;;;5042492;28;20678;-77
2024/03/29 03:59:58;;;;;;;7.57;7.17;;;8.50;99.90;;;;;;5040816;28;20195;-78
2024/03/29 04:02:24;;;;;;;7.30;6.90;;;8.50;99.90;;;;;;5046112;28;20210;-78
2024/03/29 04:04:52;;;;;;;7.57;7.07;;;8.50;99.90;;;;;;5025019;28;20188;-78
2024/03/29 04:07:18;;;;;;;6.47;6.17;;;8.60;99.90;;;;;;5024966;28;20205;-78
2024/03/29 04:09:44;;;;;;;6.40;6.10;;;8.60;99.90;;;;;;5042868;28;20192;-78
2024/03/29 04:12:10;;;;;;;6.57;6.10;;;8.60;99.90;;;;;;5060179;22;20289;-78
2024/03/29 04:14:37;;;;;;;6.30;6.00;;;8.60;99.90;;;;;;5052877;28;20195;-78
2024/03/29 04:17:03;;;;;;;6.20;5.90;;;8.60;99.90;;;;;;5051420;28;20273;-78
2024/03/29 04:19:30;;;;;;;6.10;5.80;;;8.50;99.90;;;;;;5051790;28;20274;-78
2024/03/29 04:21:57;;;;;;;6.30;6.00;;;8.50;99.90;;;;;;5025043;28;20262;-77
2024/03/29 04:24:24;;;;;;;6.20;5.90;;;8.50;99.90;;;;;;5043435;28;20270;-78
2024/03/29 04:26:50;;;;;;;6.20;5.90;;;8.50;99.90;;;;;;5014104;28;20300;-79
2024/03/29 04:29:17;;;;;;;6.50;6.10;;;8.50;99.90;;;;;;5043235;28;20199;-78
2024/03/29 04:31:45;;;;;;;6.20;5.90;;;8.50;99.90;;;;;;5026754;28;20522;-78
2024/03/29 04:34:11;;;;;;;6.30;6.00;;;8.50;99.90;;;;;;5026717;28;20195;-78
2024/03/29 04:36:39;;;;;;;6.10;5.80;;;8.50;99.90;;;;;;5014629;28;20674;-78
2024/03/29 04:39:07;;;;;;;6.40;6.10;;;8.60;99.90;;;;;;5024381;28;20191;-78
2024/03/29 04:41:35;;;;;;;6.20;5.90;;;8.60;99.90;;;;;;5042217;28;20258;-78
2024/03/29 04:44:02;;;;;;;6.50;6.10;;;8.50;99.90;;;;;;5041364;28;20740;-78
2024/03/29 04:46:31;;;;;;;6.90;6.40;;;8.60;99.90;;;;;;5050297;28;20211;-78
2024/03/29 04:48:58;;;;;;;7.17;6.67;;;8.60;99.90;;;;;;5029420;28;20199;-77
2024/03/29 04:51:30;;;;;;;6.20;5.90;;;8.70;99.90;;;;;;5041452;28;20238;-82
2024/03/29 04:53:56;;;;;;;3.57;3.37;;;8.70;99.90;;;;;;5017609;28;20213;-78
2024/03/29 04:56:24;;;;;;;7.03;6.60;;;8.70;99.90;;;;;;5021939;28;20192;-78
2024/03/29 04:58:51;;;;;;;3.60;3.40;;;8.70;99.90;;;;;;5017377;28;20571;-78
2024/03/29 05:01:19;;;;;;;1.90;1.90;;;8.80;99.90;;;;;;5044740;28;20218;-78
2024/03/29 05:03:46;;;;;;;5.93;5.63;;;8.80;99.90;;;;;;5020795;28;20204;-78
2024/03/29 05:06:12;;;;;;;6.10;5.80;;;8.80;99.90;;;;;;5039153;28;20191;-77
2024/03/29 05:08:39;;;;;;;5.43;5.13;;;8.80;99.90;;;;;;5024144;28;20212;-78
2024/03/29 05:11:07;;;;;;;5.40;5.10;;;8.80;99.90;;;;;;5019960;28;20306;-78
2024/03/29 05:13:36;;;;;;;6.30;6.00;;;8.70;99.90;;;;;;5040319;28;20208;-78
2024/03/29 05:16:03;;;;;;;3.40;3.20;;;8.70;99.90;;;;;;5044000;28;20278;-78
2024/03/29 05:18:30;;;;;;;2.30;2.20;;;8.80;99.90;;;;;;5021282;28;20204;-78
2024/03/29 05:20:56;;;;;;;5.07;4.80;;;8.80;99.90;;;;;;5023872;28;20783;-77
2024/03/29 05:23:23;;;;;;;7.10;6.70;;;8.90;99.90;;;;;;5017581;28;20554;-78
2024/03/29 05:25:52;;;;;;;6.50;6.20;;;8.90;99.90;;;;;;5040666;28;20678;-78
2024/03/29 05:28:18;;;;;;;6.20;5.83;;;9.00;99.90;;;;;;5019187;28;20282;-78
2024/03/29 05:30:47;;;;;;;2.40;2.00;;;9.00;99.90;;;;;;5022179;28;20211;-78
2024/03/29 05:33:13;;;;;;;4.37;4.07;;;9.10;99.90;;;;;;5048223;28;20202;-78
2024/03/29 05:35:41;;;;;;;7.10;6.70;;;9.10;99.90;;;;;;5040268;28;20207;-79
2024/03/29 05:38:08;;;;;;;6.40;6.07;;;9.20;99.90;;;;;;5023343;28;20208;-81
2024/03/29 05:40:34;;;;;;;6.33;6.03;;;9.20;99.90;;;;;;5051358;28;20286;-81
2024/03/29 05:43:01;;;;;;;6.30;5.90;;;9.20;99.90;;;;;;5049312;28;20230;-81
2024/03/29 05:45:30;;;;;;;6.70;6.30;;;9.20;99.90;;;;;;5017143;28;20203;-80
2024/03/29 05:47:59;;;;;;;6.40;6.10;;;9.20;99.90;;;;;;5045137;28;20195;-79
2024/03/29 05:50:29;;;;;;;7.00;6.40;;;9.10;99.90;;;;;;5030312;28;20232;-76
2024/03/29 05:52:56;;;;;;;7.43;6.93;;;9.00;99.90;;;;;;5033366;28;20254;-79
2024/03/29 05:55:23;;;;;;;7.70;7.20;;;8.90;99.90;;;;;;5030116;28;20291;-78
2024/03/29 05:57:50;;;;;;;7.03;6.57;;;8.80;99.90;;;;;;5036529;28;20207;-79
2024/03/29 06:00:17;;;;;;;8.37;7.77;;;8.80;99.90;;;;;;5045988;28;20700;-78
2024/03/29 06:02:45;;;;;;;7.70;7.20;;;8.80;99.90;;;;;;5029909;28;20215;-79
2024/03/29 06:05:13;;;;;;;7.23;6.73;;;8.70;99.90;;;;;;5046325;28;20254;-78
2024/03/29 06:07:40;;;;;;;7.30;6.80;;;8.70;99.90;;;;;;5049732;28;20196;-79
2024/03/29 06:10:09;;;;;;;7.17;6.67;;;8.70;99.90;;;;;;5048262;28;20244;-78
2024/03/29 06:12:38;;;;;;;7.23;6.83;;;8.80;99.90;;;;;;5042206;28;20252;-77
2024/03/29 06:17:50;;;;;;;2.83;2.63;;;9.00;99.90;;;;;;5048408;28;20287;-77
2024/03/29 06:20:18;;;;;;;2.60;2.40;;;9.10;99.90;;;;;;5029755;28;20222;-78
2024/03/29 06:22:45;;;;;;;4.10;3.80;;;9.20;99.90;;;;;;5042741;28;20215;-77
2024/03/29 06:25:12;;;;;;;4.37;3.97;;;9.30;99.90;;;;;;5028928;28;20631;-76
2024/03/29 06:27:39;;;;;;;5.17;4.67;;;9.20;99.90;;;;;;5030296;28;20209;-79
2024/03/29 06:30:08;;;;;;;7.70;7.20;;;9.00;99.90;;;;;;5019882;28;20247;-79
2024/03/29 06:32:34;;;;;;;8.20;7.60;;;8.80;99.90;;;;;;5039774;28;20247;-81
2024/03/29 06:35:00;;;;;;;7.93;7.40;;;8.70;99.90;;;;;;5027044;28;20495;-77
2024/03/29 06:37:29;;;;;;;7.20;6.60;;;8.70;99.90;;;;;;5022973;28;20196;-79
2024/03/29 06:39:56;;;;;;;9.00;8.30;;;8.70;99.90;;;;;;5057461;28;20195;-79
2024/03/29 06:42:26;;;;;;;7.23;6.70;;;8.70;99.90;;;;;;5049819;28;20215;-83
2024/03/29 06:44:54;;;;;;;7.40;6.90;;;8.70;99.90;;;;;;5026768;28;20250;-77
2024/03/29 06:47:21;;;;;;;7.17;6.67;;;8.80;99.90;;;;;;5015538;28;20666;-77
2024/03/29 06:49:48;;;;;;;8.10;7.40;;;8.70;99.90;;;;;;5018499;28;20200;-77
2024/03/29 06:52:15;;;;;;;7.97;7.37;;;8.70;99.90;;;;;;5040960;28;20265;-77
2024/03/29 06:54:43;;;;;;;7.10;6.60;;;8.60;99.90;;;;;;5017179;28;20293;-77
2024/03/29 06:57:14;;;;;;;7.30;6.80;;;8.50;99.90;;;;;;5020751;28;20624;-77
2024/03/29 06:59:41;;;;;;;6.77;6.37;;;8.50;99.90;;;;;;5030815;28;20200;-77
2024/03/29 07:02:09;;;;;;;7.20;6.60;;;8.40;99.90;;;;;;5045275;28;20238;-79
2024/03/29 07:04:35;;;;;;;7.00;6.50;;;8.50;99.90;;;;;;5031294;28;20199;-77
2024/03/29 07:07:02;;;;;;;7.20;6.60;;;8.40;99.90;;;;;;5031196;28;20209;-77
2024/03/29 07:09:29;;;;;;;6.50;6.10;;;8.40;99.90;;;;;;5047040;28;20195;-76
2024/03/29 07:11:58;;;;;;;6.70;6.30;;;8.40;99.90;;;;;;5034155;28;20299;-77
2024/03/29 07:14:26;;;;;;;7.10;6.60;;;8.50;99.90;;;;;;5023836;28;20195;-77
2024/03/29 07:16:53;;;;;;;6.67;6.20;;;8.50;99.90;;;;;;5031412;28;20195;-77
2024/03/29 07:19:21;;;;;;;6.97;6.47;;;8.50;99.90;;;;;;5033586;28;20225;-77
2024/03/29 07:21:47;;;;;;;6.87;6.37;;;8.50;99.90;;;;;;5029430;28;20215;-77
2024/03/29 07:24:14;;;;;;;7.20;6.60;;;8.60;99.90;;;;;;5032864;28;20745;-77
2024/03/29 07:26:41;;;;;;;7.33;6.73;;;8.50;99.90;;;;;;5032834;28;20677;-77
2024/03/29 07:29:09;;;;;;;6.63;6.23;;;8.50;99.90;;;;;;5041945;28;20545;-77
2024/03/29 07:31:39;;;;;;;6.73;6.33;;;8.50;99.90;;;;;;5037786;28;20215;-80
2024/03/29 07:34:05;;;;;;;7.10;6.50;;;8.50;99.90;;;;;;5026377;28;20588;-77
2024/03/29 07:36:35;;;;;;;8.13;7.33;;;8.50;99.90;;;;;;5027584;28;20625;-76
2024/03/29 07:39:04;;;;;;;6.70;6.20;;;8.50;99.90;;;;;;5023331;28;20196;-79
2024/03/29 07:41:31;;;;;;;6.60;6.00;;;8.60;99.90;;;;;;5038014;28;20250;-79
2024/03/29 07:44:00;;;;;;;6.90;6.40;;;8.70;99.90;;;;;;5050370;28;20238;-78
2024/03/29 07:46:33;;;;;;;6.93;6.47;;;8.80;99.90;;;;;;5044734;28;20204;-78
2024/03/29 07:48:59;;;;;;;6.77;6.17;;;9.00;99.90;;;;;;5039986;28;20205;-79
2024/03/29 07:51:26;;;;;;;7.73;7.10;;;9.20;99.90;;;;;;5027136;28;20238;-78
2024/03/29 07:53:53;;;;;;;7.40;6.90;;;9.20;99.90;;;;;;5029255;28;20242;-77
2024/03/29 07:56:21;;;;;;;7.80;7.20;;;9.30;99.90;;;;;;5027974;28;20195;-78
2024/03/29 07:58:51;;;;;;;8.07;7.57;;;9.30;99.90;;;;;;5039139;28;20192;-79
2024/03/29 08:01:22;;;;;;;6.67;6.17;;;9.30;99.90;;;;;;5029728;28;20256;-79
2024/03/29 08:03:53;;;;;;;7.00;6.50;;;9.30;99.90;;;;;;5046323;28;20202;-80
2024/03/29 08:06:20;;;;;;;3.10;2.80;;;9.40;99.90;;;;;;5036573;28;20734;-82
2024/03/29 08:08:47;;;;;;;4.80;4.40;;;9.50;99.90;;;;;;5021320;28;20201;-80
2024/03/29 08:11:17;;;;;;;5.07;4.67;;;9.50;99.90;;;;;;5017563;28;20219;-77
2024/03/29 08:13:44;;;;;;;7.47;6.93;;;9.50;99.90;;;;;;5038560;28;20219;-76
2024/03/29 08:16:11;;;;;;;5.87;5.37;;;9.60;99.90;;;;;;5017805;28;20201;-77
2024/03/29 08:18:38;;;;;;;9.17;8.40;;;9.50;99.90;;;;;;5016379;28;20679;-77
2024/03/29 08:21:11;;;;;;;9.30;8.70;;;9.50;99.90;;;;;;5037494;28;20216;-77
2024/03/29 08:23:39;;;;;;;8.23;7.57;;;9.50;99.90;;;;;;5034197;28;20283;-77
2024/03/29 08:26:06;;;;;;;7.00;6.50;;;9.50;99.90;;;;;;5040589;28;20199;-77
2024/03/29 08:28:33;;;;;;;4.93;4.53;;;9.60;99.90;;;;;;5035788;28;20226;-77
2024/03/29 08:31:00;;;;;;;6.67;6.17;;;9.60;99.90;;;;;;5041160;28;20286;-77
2024/03/29 08:33:27;;;;;;;6.80;6.30;;;9.70;99.90;;;;;;5015909;28;20231;-77
2024/03/29 08:35:54;;;;;;;5.63;5.03;;;9.80;99.90;;;;;;5039623;28;20258;-77
2024/03/29 08:38:21;;;;;;;7.17;6.67;;;9.90;99.90;;;;;;5023724;28;20584;-77
2024/03/29 08:40:49;;;;;;;8.00;7.40;;;10.10;99.90;;;;;;5021566;28;20613;-77
2024/03/29 08:43:17;;;;;;;6.83;6.23;;;10.30;99.90;;;;;;5025294;28;20568;-77
2024/03/29 08:45:44;;;;;;;4.33;3.93;;;10.60;99.90;;;;;;5024286;28;20673;-77
2024/03/29 08:48:11;;;;;;;5.10;4.60;;;10.80;99.90;;;;;;5053619;28;20195;-77
2024/03/29 08:50:38;;;;;;;7.20;6.70;;;11.00;99.90;;;;;;5039475;28;20688;-77
2024/03/29 08:53:05;;;;;;;4.50;4.10;;;11.20;99.90;;;;;;5040988;28;20212;-77
2024/03/29 08:55:36;;;;;;;4.03;3.73;;;11.20;99.90;;;;;;5019640;28;20256;-77
2024/03/29 08:58:03;;;;;;;7.90;7.20;;;11.30;99.90;;;;;;5039800;28;20191;-77
2024/03/29 09:00:31;;;;;;;5.90;5.50;;;11.30;99.90;;;;;;5044149;28;20212;-77
2024/03/29 09:02:58;;;;;;;9.60;8.90;;;11.20;99.90;;;;;;5021314;28;20245;-77
2024/03/29 09:05:26;;;;;;;4.10;3.80;;;11.10;99.90;;;;;;5041224;28;20203;-77
2024/03/29 09:07:53;;;;;;;4.30;4.00;;;11.20;99.90;;;;;;5020555;28;20219;-77
2024/03/29 09:10:20;;;;;;;4.90;4.50;;;11.20;99.90;;;;;;5023212;28;20196;-77
2024/03/29 09:12:48;;;;;;;4.20;3.80;;;11.10;99.90;;;;;;5036872;28;20769;-77
2024/03/29 09:15:16;;;;;;;4.13;3.73;;;11.20;99.90;;;;;;5021681;28;20648;-77
2024/03/29 09:17:43;;;;;;;4.67;4.37;;;11.30;99.90;;;;;;5043825;28;20759;-77
2024/03/29 09:20:11;;;;;;;3.43;3.13;;;11.50;99.90;;;;;;5021520;28;20226;-77
2024/03/29 09:22:38;;;;;;;7.93;7.30;;;11.60;99.90;;;;;;5024477;28;20215;-77
2024/03/29 09:25:05;;;;;;;7.80;7.20;;;11.60;99.90;;;;;;5038105;28;20526;-77
2024/03/29 09:27:33;;;;;;;7.80;7.30;;;11.70;99.90;;;;;;5025225;28;20200;-77
2024/03/29 09:30:02;;;;;;;7.60;7.10;;;11.70;99.90;;;;;;5043021;28;20188;-77
2024/03/29 09:32:29;;;;;;;7.47;6.97;;;11.60;99.90;;;;;;5040209;28;20255;-77
2024/03/29 09:34:56;;;;;;;7.43;6.97;;;11.60;99.90;;;;;;5046317;28;20207;-78
2024/03/29 09:37:23;;;;;;;7.67;7.17;;;11.50;99.90;;;;;;5036067;28;20265;-77
2024/03/29 09:39:50;;;;;;;7.57;7.07;;;11.40;99.90;;;;;;5041016;28;20194;-77
2024/03/29 09:42:18;;;;;;;7.57;7.07;;;11.30;99.90;;;;;;5045813;28;20751;-77
2024/03/29 09:44:47;;;;;;;8.03;7.33;;;11.40;99.90;;;;;;5027238;28;20694;-77
2024/03/29 09:47:18;;;;;;;8.53;7.83;;;11.50;99.90;;;;;;5045020;28;20195;-77
2024/03/29 09:49:47;;;;;;;7.90;7.40;;;11.70;99.90;;;;;;5047371;28;20196;-77
2024/03/29 09:52:15;;;;;;;8.23;7.63;;;12.00;99.90;;;;;;5043729;28;20215;-77
2024/03/29 09:54:42;;;;;;;8.33;7.73;;;12.30;99.90;;;;;;5017876;28;20712;-77
2024/03/29 09:57:09;;;;;;;3.40;3.10;;;12.50;99.90;;;;;;5022522;28;20633;-77
2024/03/29 09:59:37;;;;;;;7.93;7.13;;;12.60;99.90;;;;;;5038859;28;20199;-77
2024/03/29 10:02:12;;;;;;;4.57;4.07;;;12.80;99.90;;;;;;5041034;28;20312;-77
2024/03/29 10:04:41;;;;;;;5.33;2.83;;;12.90;99.90;;;;;;5038892;28;20197;-77
2024/03/29 10:07:09;;;;;;;3.60;2.80;;;13.00;99.90;;;;;;5039857;28;20185;-77
2024/03/29 10:09:37;;;;;;;5.30;4.90;;;13.10;99.90;;;;;;5052612;28;20224;-77
2024/03/29 10:12:05;;;;;;;3.70;3.40;;;13.20;99.90;;;;;;5017082;28;20231;-78
2024/03/29 10:14:32;;;;;;;2.90;2.70;;;13.10;99.90;;;;;;5039455;28;20206;-78
2024/03/29 10:16:59;;;;;;;2.80;2.60;;;13.20;99.90;;;;;;5040617;28;20193;-78
2024/03/29 10:19:26;;;;;;;6.17;5.73;;;13.20;99.90;;;;;;5037755;28;20277;-78
2024/03/29 10:21:54;;;;;;;6.53;6.10;;;13.40;99.90;;;;;;5040110;28;20226;-78
2024/03/29 10:24:20;;;;;;;8.17;7.47;;;13.70;99.90;;;;;;5034822;28;20195;-77
2024/03/29 10:26:47;;;;;;;8.27;7.47;;;13.90;99.90;;;;;;5021900;28;20216;-78
2024/03/29 10:29:14;;;;;;;7.93;7.13;;;14.20;99.90;;;;;;5023517;28;20205;-78
2024/03/29 10:31:41;;;;;;;8.17;7.37;;;14.50;99.90;;;;;;5022008;28;20226;-78
2024/03/29 10:34:08;;;;;;;3.20;2.87;;;14.80;99.90;;;;;;5040450;28;20574;-78
2024/03/29 10:36:35;;;;;;;2.90;2.40;;;14.70;99.90;;;;;;5042824;28;20203;-78
2024/03/29 10:39:11;;;;;;;3.03;2.73;;;14.60;99.90;;;;;;5019512;28;20201;-78
2024/03/29 10:41:40;;;;;;;3.33;2.90;;;14.50;99.90;;;;;;5022319;28;20306;-77
2024/03/29 10:44:10;;;;;;;2.50;2.30;;;14.60;99.90;;;;;;5018058;28;20315;-78
2024/03/29 10:46:38;;;;;;;2.40;2.20;;;14.60;99.90;;;;;;5020858;28;20211;-78
2024/03/29 10:49:09;;;;;;;2.53;2.33;;;14.60;99.90;;;;;;5042739;28;20196;-78
2024/03/29 10:51:38;;;;;;;4.30;4.00;;;14.80;99.90;;;;;;5037634;28;20633;-78
2024/03/29 10:54:08;;;;;;;2.57;2.20;;;14.90;99.90;;;;;;5033947;28;20274;-77
2024/03/29 10:56:36;;;;;;;7.07;6.60;;;15.00;99.90;;;;;;5019080;28;20607;-78
2024/03/29 10:59:07;;;;;;;7.20;6.70;;;15.00;99.90;;;;;;5022816;28;20227;-78
2024/03/29 11:01:35;;;;;;;7.63;7.03;;;14.60;99.90;;;;;;5019113;28;20285;-77
2024/03/29 11:04:08;;;;;;;8.07;7.47;;;14.60;99.90;;;;;;5039045;28;20238;-78
2024/03/29 11:06:38;;;;;;;7.43;6.83;;;14.60;99.90;;;;;;5016844;28;20234;-78
2024/03/29 11:09:10;;;;;;;7.20;6.70;;;14.80;99.90;;;;;;5025021;28;20206;-78
2024/03/29 11:11:39;;;;;;;7.00;6.47;;;14.90;99.90;;;;;;5019001;28;20228;-78
2024/03/29 11:14:11;;;;;;;7.27;6.73;;;15.00;99.90;;;;;;5040672;28;20222;-78
2024/03/29 11:16:38;;;;;;;7.50;7.00;;;15.10;99.90;;;;;;5019249;28;20203;-78
2024/03/29 11:19:06;;;;;;;7.70;7.10;;;15.20;99.90;;;;;;5032342;28;20206;-78
2024/03/29 11:21:33;;;;;;;8.00;7.40;;;15.10;99.90;;;;;;5037435;28;20224;-78
2024/03/29 11:24:05;;;;;;;6.93;6.43;;;14.90;99.90;;;;;;5036822;28;20188;-77
2024/03/29 11:26:34;;;;;;;6.10;5.70;;;14.80;99.90;;;;;;5036315;28;20203;-78
2024/03/29 11:29:02;;;;;;;8.97;8.37;;;14.80;99.90;;;;;;5047928;28;20195;-78
2024/03/29 11:31:30;;;;;;;7.00;6.50;;;14.70;99.90;;;;;;5026393;28;20219;-78
2024/03/29 11:33:58;;;;;;;7.10;6.60;;;14.70;99.90;;;;;;5033211;28;20315;-77
2024/03/29 11:36:29;;;;;;;6.80;6.30;;;14.70;99.90;;;;;;5044638;28;20200;-78
2024/03/29 11:38:58;;;;;;;6.50;6.10;;;14.70;99.90;;;;;;5037238;28;20230;-78
2024/03/29 11:41:27;;;;;;;6.40;6.00;;;14.90;99.90;;;;;;5039742;28;20243;-78
2024/03/29 11:43:55;;;;;;;7.00;6.43;;;14.80;99.90;;;;;;5018422;28;20210;-77
2024/03/29 11:46:23;;;;;;;7.00;6.50;;;14.80;99.90;;;;;;5038943;28;20195;-78
2024/03/29 11:48:51;;;;;;;6.70;6.20;;;14.90;99.90;;;;;;5048899;28;20219;-78
2024/03/29 11:51:21;;;;;;;6.40;6.00;;;14.80;99.90;;;;;;5037716;28;20226;-78
2024/03/29 11:53:50;;;;;;;6.73;6.33;;;15.00;99.90;;;;;;5024055;28;20222;-78
2024/03/29 11:56:17;;;;;;;6.70;6.23;;;15.20;99.90;;;;;;5018847;28;20689;-78
2024/03/29 11:58:45;;;;;;;6.60;6.20;;;15.60;99.90;;;;;;5040340;28;20203;-78
2024/03/29 12:01:14;;;;;;;6.60;6.20;;;15.80;99.90;;;;;;5035958;28;20740;-78
2024/03/29 12:03:42;;;;;;;6.30;5.80;;;15.90;99.90;;;;;;5040581;28;20246;-78
2024/03/29 12:06:09;;;;;;;6.50;6.00;;;16.00;99.90;;;;;;5015184;28;20622;-78
2024/03/29 12:08:41;;;;;;;6.60;6.20;;;16.00;99.90;;;;;;5019547;28;20250;-78
2024/03/29 12:11:08;;;;;;;6.50;6.00;;;16.10;99.90;;;;;;5026111;28;20230;-78
2024/03/29 12:13:35;;;;;;;6.77;6.27;;;16.20;99.90;;;;;;5043922;28;20220;-78
2024/03/29 12:16:03;;;;;;;6.00;5.60;;;16.20;99.90;;;;;;5040424;28;20207;-78
2024/03/29 12:18:31;;;;;;;5.83;5.40;;;16.20;99.90;;;;;;5036206;28;20583;-77
2024/03/29 12:20:58;;;;;;;5.23;4.90;;;16.10;99.90;;;;;;5026366;28;20306;-78
2024/03/29 12:23:25;;;;;;;5.50;5.10;;;16.10;99.90;;;;;;5024799;28;20250;-80
2024/03/29 12:25:57;;;;;;;6.20;5.80;;;16.10;99.90;;;;;;5050561;28;20218;-78
2024/03/29 12:28:24;;;;;;;5.90;5.60;;;15.90;99.90;;;;;;5048746;28;20690;-79
2024/03/29 12:30:55;;;;;;;6.20;5.80;;;15.80;99.90;;;;;;5049950;28;20703;-79
2024/03/29 12:33:22;;;;;;;6.30;5.90;;;15.80;99.90;;;;;;5031203;28;20215;-79
2024/03/29 12:35:52;;;;;;;6.70;6.20;;;15.60;99.90;;;;;;5042537;28;20200;-78
2024/03/29 12:38:20;;;;;;;6.80;6.40;;;15.40;99.90;;;;;;5045695;28;20194;-77
2024/03/29 12:40:48;;;;;;;6.50;6.10;;;15.50;99.90;;;;;;5041636;28;20223;-80
2024/03/29 12:43:17;;;;;;;6.70;6.30;;;15.60;99.90;;;;;;5039015;28;20638;-78
2024/03/29 12:45:44;;;;;;;7.00;6.50;;;15.70;99.90;;;;;;5029422;28;20213;-77
2024/03/29 12:48:12;;;;;;;6.97;6.47;;;15.90;99.90;;;;;;5032057;28;20199;-77
2024/03/29 12:50:41;;;;;;;7.00;6.60;;;16.10;99.90;;;;;;5040455;28;20210;-77
2024/03/29 12:53:11;;;;;;;6.70;6.30;;;16.20;99.90;;;;;;5042479;28;20707;-77
2024/03/29 12:55:41;;;;;;;6.20;5.80;;;16.50;99.90;;;;;;5027198;28;20203;-77
2024/03/29 12:58:10;;;;;;;2.53;2.03;;;16.60;99.90;;;;;;5031034;28;20213;-77
2024/03/29 13:00:37;;;;;;;4.00;3.80;;;16.80;99.90;;;;;;5038582;28;20202;-77
2024/03/29 13:03:05;;;;;;;6.20;5.90;;;16.80;99.90;;;;;;5039691;28;20226;-78
2024/03/29 13:05:34;;;;;;;6.50;6.10;;;16.80;99.90;;;;;;5036121;28;20196;-78
2024/03/29 13:08:02;;;;;;;6.40;6.00;;;16.50;99.90;;;;;;5038823;28;20223;-77
2024/03/29 13:10:30;;;;;;;6.30;5.90;;;16.40;99.90;;;;;;5033915;28;20563;-77
2024/03/29 13:12:59;;;;;;;6.40;6.00;;;16.40;99.90;;;;;;5038729;28;20213;-80
2024/03/29 13:15:27;;;;;;;6.00;5.60;;;16.30;99.90;;;;;;5042618;28;20362;-76
2024/03/29 13:17:55;;;;;;;6.23;5.83;;;16.20;99.90;;;;;;5041564;28;20238;-78
2024/03/29 13:20:22;;;;;;;6.30;5.90;;;16.20;99.90;;;;;;5018006;28;20740;-77
2024/03/29 13:22:51;;;;;;;6.50;6.10;;;16.20;99.90;;;;;;5019510;28;20286;-77
2024/03/29 13:25:19;;;;;;;6.37;6.00;;;16.20;99.90;;;;;;5021135;28;20249;-77
2024/03/29 13:27:53;;;;;;;6.13;5.73;;;16.20;99.90;;;;;;5026804;28;20203;-77
2024/03/29 13:30:21;;;;;;;6.47;6.00;;;16.20;99.90;;;;;;5036975;28;20222;-77
2024/03/29 13:32:48;;;;;;;6.50;6.10;;;16.20;99.90;;;;;;5020534;28;20297;-78
2024/03/29 13:35:15;;;;;;;6.70;6.30;;;16.20;99.90;;;;;;5036016;28;20299;-77
2024/03/29 13:37:45;;;;;;;4.30;4.00;;;16.20;99.90;;;;;;5023436;28;20698;-78
2024/03/29 13:40:13;;;;;;;5.53;5.23;;;16.20;99.90;;;;;;5023083;28;20204;-77
2024/03/29 13:42:40;;;;;;;6.40;6.00;;;16.20;99.90;;;;;;5035951;28;20216;-77
2024/03/29 13:45:10;;;;;;;6.60;6.20;;;16.20;99.90;;;;;;5032030;28;20199;-77
2024/03/29 13:47:38;;;;;;;6.90;6.50;;;16.20;99.90;;;;;;5040656;28;20188;-78
2024/03/29 13:50:05;;;;;;;7.07;6.57;;;16.10;99.90;;;;;;5040640;28;20200;-77
2024/03/29 13:52:33;;;;;;;6.33;5.97;;;16.20;99.90;;;;;;5049785;28;20217;-76
2024/03/29 13:55:00;;;;;;;6.70;6.30;;;16.20;99.90;;;;;;5044937;28;20648;-77
2024/03/29 13:57:27;;;;;;;6.50;6.00;;;16.30;99.90;;;;;;5030161;28;20203;-77
2024/03/29 13:59:54;;;;;;;6.80;6.40;;;16.30;99.90;;;;;;5043996;28;20263;-77
2024/03/29 14:02:22;;;;;;;6.23;5.90;;;16.30;99.90;;;;;;5023448;28;20637;-77
2024/03/29 14:04:50;;;;;;;6.70;6.10;;;16.40;99.90;;;;;;5043080;28;20242;-82
2024/03/29 14:07:17;;;;;;;6.50;6.00;;;16.40;99.90;;;;;;5032731;28;20202;-82
2024/03/29 14:09:45;;;;;;;6.23;5.87;;;16.30;99.90;;;;;;5027458;28;20203;-82
2024/03/29 14:12:12;;;;;;;6.40;6.00;;;16.30;99.90;;;;;;5024261;28;20242;-83
2024/03/29 14:14:39;;;;;;;6.20;5.90;;;16.30;99.90;;;;;;5031306;28;20594;-80
2024/03/29 14:17:06;;;;;;;6.70;6.30;;;16.30;99.90;;;;;;5040351;28;20200;-80
2024/03/29 14:19:34;;;;;;;6.20;5.90;;;16.50;99.90;;;;;;5019223;28;20200;-80
2024/03/29 14:22:01;;;;;;;6.37;5.93;;;16.50;99.90;;;;;;5026127;28;20227;-81
2024/03/29 14:24:30;;;;;;;6.20;5.80;;;16.60;99.90;;;;;;5047540;28;20196;-79
2024/03/29 14:26:57;;;;;;;6.03;5.63;;;16.70;99.90;;;;;;5034488;28;20209;-78
2024/03/29 14:29:23;;;;;;;6.23;5.90;;;16.80;99.90;;;;;;5033060;28;20216;-79
2024/03/29 14:31:51;;;;;;;6.60;6.20;;;16.80;99.90;;;;;;5042326;28;20428;-79
2024/03/29 14:34:18;;;;;;;6.70;6.30;;;16.80;99.90;;;;;;5028683;28;20311;-79
2024/03/29 14:36:46;;;;;;;6.67;6.27;;;16.80;99.90;;;;;;5043249;28;20202;-79
2024/03/29 14:39:13;;;;;;;6.30;5.90;;;16.80;99.90;;;;;;5021270;28;20207;-79
2024/03/29 14:41:40;;;;;;;6.50;6.00;;;16.80;99.90;;;;;;5023701;28;20224;-79
2024/03/29 14:44:08;;;;;;;6.30;6.00;;;16.90;99.90;;;;;;5029246;28;20200;-79